sensor_id;sensor_type;location;lat;lon;timestamp;P1;durP1;ratioP1;P2;durP2;ratioP2
62572;SDS011;48626;51.678;5.806;2022-08-04T00:00:53;21.70;;;6.05;;
62572;SDS011;48626;51.678;5.806;2022-08-04T00:09:49;16.60;;;5.93;;
62572;SDS011;48626;51.678;5.806;2022-08-04T00:12:20;13.45;;;5.82;;
62572;SDS011;48626;51.678;5.806;2022-08-04T00:14:49;17.63;;;6.13;;
62572;SDS011;48626;51.678;5.806;2022-08-04T00:17:19;15.00;;;5.82;;
62572;SDS011;48626;51.678;5.806;2022-08-04T00:19:48;16.42;;;5.68;;
62572;SDS011;48626;51.678;5.806;2022-08-04T00:22:18;11.10;;;5.75;;
62572;SDS011;48626;51.678;5.806;2022-08-04T00:24:47;13.18;;;5.35;;
62572;SDS011;48626;51.678;5.806;2022-08-04T00:27:13;16.88;;;5.65;;
62572;SDS011;48626;51.678;5.806;2022-08-04T00:29:40;16.00;;;6.15;;
62572;SDS011;48626;51.678;5.806;2022-08-04T00:32:07;13.70;;;5.70;;
62572;SDS011;48626;51.678;5.806;2022-08-04T00:34:33;9.68;;;5.55;;
62572;SDS011;48626;51.678;5.806;2022-08-04T00:37:00;14.15;;;5.32;;
62572;SDS011;48626;51.678;5.806;2022-08-04T00:39:26;13.40;;;5.70;;
62572;SDS011;48626;51.678;5.806;2022-08-04T00:41:56;10.45;;;5.72;;
62572;SDS011;48626;51.678;5.806;2022-08-04T00:50:33;16.13;;;5.40;;
62572;SDS011;48626;51.678;5.806;2022-08-04T00:53:27;10.73;;;5.22;;
62572;SDS011;48626;51.678;5.806;2022-08-04T00:56:21;16.85;;;5.75;;
62572;SDS011;48626;51.678;5.806;2022-08-04T01:07:30;11.43;;;5.32;;
62572;SDS011;48626;51.678;5.806;2022-08-04T01:15:38;15.40;;;4.68;;
62572;SDS011;48626;51.678;5.806;2022-08-04T01:18:21;13.57;;;4.85;;
62572;SDS011;48626;51.678;5.806;2022-08-04T01:21:05;13.60;;;5.25;;
62572;SDS011;48626;51.678;5.806;2022-08-04T01:26:56;13.27;;;4.80;;
62572;SDS011;48626;51.678;5.806;2022-08-04T01:30:09;21.05;;;4.97;;
62572;SDS011;48626;51.678;5.806;2022-08-04T01:32:31;12.02;;;4.75;;
62572;SDS011;48626;51.678;5.806;2022-08-04T01:35:04;10.60;;;4.40;;
62572;SDS011;48626;51.678;5.806;2022-08-04T01:40:16;9.02;;;4.47;;
62572;SDS011;48626;51.678;5.806;2022-08-04T01:42:42;13.45;;;4.65;;
62572;SDS011;48626;51.678;5.806;2022-08-04T01:45:10;9.88;;;4.55;;
62572;SDS011;48626;51.678;5.806;2022-08-04T01:47:39;12.13;;;4.78;;
62572;SDS011;48626;51.678;5.806;2022-08-04T01:50:13;13.25;;;4.25;;
62572;SDS011;48626;51.678;5.806;2022-08-04T01:52:39;16.90;;;4.85;;
62572;SDS011;48626;51.678;5.806;2022-08-04T01:55:07;12.07;;;4.55;;
62572;SDS011;48626;51.678;5.806;2022-08-04T01:57:48;11.80;;;5.00;;
62572;SDS011;48626;51.678;5.806;2022-08-04T02:00:16;15.73;;;4.90;;
62572;SDS011;48626;51.678;5.806;2022-08-04T02:02:44;16.85;;;5.28;;
62572;SDS011;48626;51.678;5.806;2022-08-04T02:05:11;14.57;;;4.80;;
62572;SDS011;48626;51.678;5.806;2022-08-04T02:10:28;12.93;;;4.82;;
62572;SDS011;48626;51.678;5.806;2022-08-04T02:16:03;7.50;;;4.22;;
62572;SDS011;48626;51.678;5.806;2022-08-04T02:18:50;8.70;;;4.90;;
62572;SDS011;48626;51.678;5.806;2022-08-04T02:21:25;10.77;;;4.63;;
62572;SDS011;48626;51.678;5.806;2022-08-04T02:23:56;11.00;;;5.13;;
62572;SDS011;48626;51.678;5.806;2022-08-04T02:26:26;10.25;;;5.45;;
62572;SDS011;48626;51.678;5.806;2022-08-04T02:34:00;11.95;;;5.25;;
62572;SDS011;48626;51.678;5.806;2022-08-04T02:36:40;13.70;;;5.47;;
62572;SDS011;48626;51.678;5.806;2022-08-04T02:39:07;9.90;;;5.00;;
62572;SDS011;48626;51.678;5.806;2022-08-04T02:41:34;13.63;;;5.03;;
62572;SDS011;48626;51.678;5.806;2022-08-04T02:44:03;17.45;;;5.20;;
62572;SDS011;48626;51.678;5.806;2022-08-04T02:46:31;8.48;;;5.30;;
62572;SDS011;48626;51.678;5.806;2022-08-04T02:49:00;12.05;;;5.40;;
62572;SDS011;48626;51.678;5.806;2022-08-04T02:51:28;10.60;;;5.55;;
62572;SDS011;48626;51.678;5.806;2022-08-04T02:53:58;11.65;;;4.82;;
62572;SDS011;48626;51.678;5.806;2022-08-04T02:56:27;15.23;;;5.45;;
62572;SDS011;48626;51.678;5.806;2022-08-04T02:58:59;12.13;;;4.95;;
62572;SDS011;48626;51.678;5.806;2022-08-04T03:01:26;11.68;;;5.22;;
62572;SDS011;48626;51.678;5.806;2022-08-04T03:09:46;12.05;;;5.63;;
62572;SDS011;48626;51.678;5.806;2022-08-04T03:14:34;16.02;;;5.50;;
62572;SDS011;48626;51.678;5.806;2022-08-04T03:31:23;9.40;;;5.45;;
62572;SDS011;48626;51.678;5.806;2022-08-04T03:37:28;16.45;;;5.53;;
62572;SDS011;48626;51.678;5.806;2022-08-04T03:57:52;16.77;;;5.68;;
62572;SDS011;48626;51.678;5.806;2022-08-04T04:00:15;18.73;;;5.30;;
62572;SDS011;48626;51.678;5.806;2022-08-04T04:05:40;14.20;;;5.82;;
62572;SDS011;48626;51.678;5.806;2022-08-04T04:14:24;13.57;;;5.22;;
62572;SDS011;48626;51.678;5.806;2022-08-04T04:28:18;16.33;;;5.45;;
62572;SDS011;48626;51.678;5.806;2022-08-04T04:36:51;13.13;;;5.90;;
62572;SDS011;48626;51.678;5.806;2022-08-04T04:42:33;12.98;;;5.60;;
62572;SDS011;48626;51.678;5.806;2022-08-04T04:45:16;18.05;;;6.95;;
62572;SDS011;48626;51.678;5.806;2022-08-04T04:48:32;16.70;;;6.05;;
62572;SDS011;48626;51.678;5.806;2022-08-04T05:05:17;16.75;;;5.40;;
62572;SDS011;48626;51.678;5.806;2022-08-04T05:10:52;17.05;;;6.10;;
62572;SDS011;48626;51.678;5.806;2022-08-04T05:16:31;14.70;;;5.88;;
62572;SDS011;48626;51.678;5.806;2022-08-04T05:19:04;17.67;;;6.30;;
62572;SDS011;48626;51.678;5.806;2022-08-04T05:21:46;13.90;;;5.80;;
62572;SDS011;48626;51.678;5.806;2022-08-04T05:24:16;12.77;;;6.55;;
62572;SDS011;48626;51.678;5.806;2022-08-04T05:26:44;18.85;;;6.05;;
62572;SDS011;48626;51.678;5.806;2022-08-04T05:29:21;13.23;;;6.18;;
62572;SDS011;48626;51.678;5.806;2022-08-04T05:31:50;13.98;;;6.40;;
62572;SDS011;48626;51.678;5.806;2022-08-04T05:34:21;22.00;;;6.72;;
62572;SDS011;48626;51.678;5.806;2022-08-04T05:36:52;19.92;;;6.78;;
62572;SDS011;48626;51.678;5.806;2022-08-04T05:39:23;18.65;;;6.85;;
62572;SDS011;48626;51.678;5.806;2022-08-04T05:41:52;17.35;;;6.50;;
62572;SDS011;48626;51.678;5.806;2022-08-04T05:44:21;14.85;;;6.80;;
62572;SDS011;48626;51.678;5.806;2022-08-04T05:46:49;15.48;;;6.97;;
62572;SDS011;48626;51.678;5.806;2022-08-04T05:49:16;28.48;;;6.72;;
62572;SDS011;48626;51.678;5.806;2022-08-04T05:51:43;16.38;;;6.15;;
62572;SDS011;48626;51.678;5.806;2022-08-04T05:54:10;16.75;;;6.88;;
62572;SDS011;48626;51.678;5.806;2022-08-04T05:56:38;19.02;;;7.28;;
62572;SDS011;48626;51.678;5.806;2022-08-04T05:59:05;15.50;;;7.00;;
62572;SDS011;48626;51.678;5.806;2022-08-04T06:01:31;20.05;;;6.90;;
62572;SDS011;48626;51.678;5.806;2022-08-04T06:03:59;19.75;;;7.38;;
62572;SDS011;48626;51.678;5.806;2022-08-04T06:06:26;17.88;;;7.32;;
62572;SDS011;48626;51.678;5.806;2022-08-04T06:08:55;23.25;;;7.80;;
62572;SDS011;48626;51.678;5.806;2022-08-04T06:11:20;17.20;;;7.43;;
62572;SDS011;48626;51.678;5.806;2022-08-04T06:13:51;21.25;;;7.47;;
62572;SDS011;48626;51.678;5.806;2022-08-04T06:16:21;24.08;;;8.82;;
62572;SDS011;48626;51.678;5.806;2022-08-04T06:18:50;15.73;;;7.77;;
62572;SDS011;48626;51.678;5.806;2022-08-04T06:21:19;21.33;;;8.07;;
62572;SDS011;48626;51.678;5.806;2022-08-04T06:23:47;21.88;;;9.07;;
62572;SDS011;48626;51.678;5.806;2022-08-04T06:26:14;19.42;;;8.82;;
62572;SDS011;48626;51.678;5.806;2022-08-04T06:28:47;22.48;;;9.55;;
62572;SDS011;48626;51.678;5.806;2022-08-04T06:31:15;22.20;;;10.38;;
62572;SDS011;48626;51.678;5.806;2022-08-04T06:34:06;21.15;;;10.70;;
62572;SDS011;48626;51.678;5.806;2022-08-04T06:36:32;29.35;;;11.68;;
62572;SDS011;48626;51.678;5.806;2022-08-04T06:39:03;24.73;;;10.55;;
62572;SDS011;48626;51.678;5.806;2022-08-04T06:41:29;27.58;;;10.00;;
62572;SDS011;48626;51.678;5.806;2022-08-04T06:44:04;25.52;;;11.13;;
62572;SDS011;48626;51.678;5.806;2022-08-04T06:46:33;20.15;;;10.18;;
62572;SDS011;48626;51.678;5.806;2022-08-04T06:49:00;27.15;;;10.90;;
62572;SDS011;48626;51.678;5.806;2022-08-04T06:51:27;27.10;;;11.50;;
62572;SDS011;48626;51.678;5.806;2022-08-04T06:53:55;23.90;;;11.43;;
62572;SDS011;48626;51.678;5.806;2022-08-04T06:56:21;19.52;;;11.02;;
62572;SDS011;48626;51.678;5.806;2022-08-04T06:58:49;26.08;;;12.20;;
62572;SDS011;48626;51.678;5.806;2022-08-04T07:01:17;26.52;;;13.07;;
62572;SDS011;48626;51.678;5.806;2022-08-04T07:03:45;23.52;;;10.40;;
62572;SDS011;48626;51.678;5.806;2022-08-04T07:06:11;18.83;;;10.93;;
62572;SDS011;48626;51.678;5.806;2022-08-04T07:08:37;25.10;;;10.75;;
62572;SDS011;48626;51.678;5.806;2022-08-04T07:11:04;22.55;;;10.82;;
62572;SDS011;48626;51.678;5.806;2022-08-04T07:13:30;24.20;;;10.68;;
62572;SDS011;48626;51.678;5.806;2022-08-04T07:15:56;23.10;;;10.65;;
62572;SDS011;48626;51.678;5.806;2022-08-04T07:18:24;16.35;;;8.45;;
62572;SDS011;48626;51.678;5.806;2022-08-04T07:20:49;30.52;;;8.90;;
62572;SDS011;48626;51.678;5.806;2022-08-04T07:23:16;23.45;;;8.75;;
62572;SDS011;48626;51.678;5.806;2022-08-04T07:25:51;19.77;;;9.18;;
62572;SDS011;48626;51.678;5.806;2022-08-04T07:28:18;19.45;;;8.25;;
62572;SDS011;48626;51.678;5.806;2022-08-04T07:30:46;28.88;;;8.77;;
62572;SDS011;48626;51.678;5.806;2022-08-04T07:33:13;19.17;;;8.27;;
62572;SDS011;48626;51.678;5.806;2022-08-04T07:35:41;23.90;;;7.10;;
62572;SDS011;48626;51.678;5.806;2022-08-04T07:38:07;25.23;;;10.35;;
62572;SDS011;48626;51.678;5.806;2022-08-04T07:40:35;25.50;;;9.57;;
62572;SDS011;48626;51.678;5.806;2022-08-04T07:43:02;20.88;;;9.52;;
62572;SDS011;48626;51.678;5.806;2022-08-04T07:45:28;17.65;;;6.35;;
62572;SDS011;48626;51.678;5.806;2022-08-04T07:47:54;17.90;;;5.90;;
62572;SDS011;48626;51.678;5.806;2022-08-04T07:50:21;14.60;;;4.70;;
62572;SDS011;48626;51.678;5.806;2022-08-04T07:52:47;14.38;;;4.28;;
62572;SDS011;48626;51.678;5.806;2022-08-04T07:55:13;16.02;;;4.97;;
62572;SDS011;48626;51.678;5.806;2022-08-04T07:57:40;16.70;;;5.57;;
62572;SDS011;48626;51.678;5.806;2022-08-04T08:00:06;21.33;;;5.22;;
62572;SDS011;48626;51.678;5.806;2022-08-04T08:02:33;16.70;;;5.85;;
62572;SDS011;48626;51.678;5.806;2022-08-04T08:05:00;15.82;;;6.00;;
62572;SDS011;48626;51.678;5.806;2022-08-04T08:07:26;20.52;;;6.05;;
62572;SDS011;48626;51.678;5.806;2022-08-04T08:09:52;18.42;;;6.55;;
62572;SDS011;48626;51.678;5.806;2022-08-04T08:12:18;18.00;;;7.13;;
62572;SDS011;48626;51.678;5.806;2022-08-04T08:14:44;18.73;;;7.07;;
62572;SDS011;48626;51.678;5.806;2022-08-04T08:17:11;19.70;;;7.13;;
62572;SDS011;48626;51.678;5.806;2022-08-04T08:19:36;15.90;;;7.40;;
62572;SDS011;48626;51.678;5.806;2022-08-04T08:22:02;20.92;;;7.40;;
62572;SDS011;48626;51.678;5.806;2022-08-04T08:24:28;23.02;;;7.07;;
62572;SDS011;48626;51.678;5.806;2022-08-04T08:26:55;25.08;;;7.28;;
62572;SDS011;48626;51.678;5.806;2022-08-04T08:29:21;17.55;;;6.78;;
62572;SDS011;48626;51.678;5.806;2022-08-04T08:31:48;22.35;;;5.90;;
62572;SDS011;48626;51.678;5.806;2022-08-04T08:34:13;19.08;;;5.70;;
62572;SDS011;48626;51.678;5.806;2022-08-04T08:36:44;20.05;;;5.43;;
62572;SDS011;48626;51.678;5.806;2022-08-04T08:47:26;14.18;;;4.78;;
62572;SDS011;48626;51.678;5.806;2022-08-04T08:56:10;16.95;;;4.55;;
62572;SDS011;48626;51.678;5.806;2022-08-04T09:07:26;12.05;;;5.47;;
62572;SDS011;48626;51.678;5.806;2022-08-04T09:10:11;17.45;;;6.45;;
62572;SDS011;48626;51.678;5.806;2022-08-04T09:12:51;15.15;;;6.00;;
62572;SDS011;48626;51.678;5.806;2022-08-04T09:18:21;16.15;;;6.50;;
62572;SDS011;48626;51.678;5.806;2022-08-04T09:20:53;19.08;;;8.55;;
62572;SDS011;48626;51.678;5.806;2022-08-04T09:26:01;24.20;;;7.30;;
62572;SDS011;48626;51.678;5.806;2022-08-04T09:31:37;16.42;;;6.43;;
62572;SDS011;48626;51.678;5.806;2022-08-04T09:34:23;13.25;;;6.70;;
62572;SDS011;48626;51.678;5.806;2022-08-04T09:37:08;13.70;;;6.25;;
62572;SDS011;48626;51.678;5.806;2022-08-04T09:45:51;13.70;;;5.30;;
62572;SDS011;48626;51.678;5.806;2022-08-04T09:54:22;12.18;;;5.13;;
62572;SDS011;48626;51.678;5.806;2022-08-04T09:56:57;11.85;;;4.85;;
62572;SDS011;48626;51.678;5.806;2022-08-04T10:02:08;14.73;;;4.68;;
62572;SDS011;48626;51.678;5.806;2022-08-04T10:04:38;16.38;;;4.82;;
62572;SDS011;48626;51.678;5.806;2022-08-04T10:15:15;9.13;;;4.20;;
62572;SDS011;48626;51.678;5.806;2022-08-04T10:23:14;9.95;;;3.38;;
62572;SDS011;48626;51.678;5.806;2022-08-04T10:28:50;11.43;;;3.58;;
62572;SDS011;48626;51.678;5.806;2022-08-04T10:31:25;12.30;;;3.30;;
62572;SDS011;48626;51.678;5.806;2022-08-04T10:34:13;9.73;;;3.10;;
62572;SDS011;48626;51.678;5.806;2022-08-04T10:36:59;16.42;;;3.50;;
62572;SDS011;48626;51.678;5.806;2022-08-04T10:39:51;10.80;;;3.70;;
62572;SDS011;48626;51.678;5.806;2022-08-04T10:42:52;15.13;;;3.40;;
62572;SDS011;48626;51.678;5.806;2022-08-04T10:45:25;14.05;;;3.42;;
62572;SDS011;48626;51.678;5.806;2022-08-04T10:47:58;20.65;;;4.25;;
62572;SDS011;48626;51.678;5.806;2022-08-04T10:50:30;19.08;;;3.40;;
62572;SDS011;48626;51.678;5.806;2022-08-04T10:53:18;15.15;;;4.05;;
62572;SDS011;48626;51.678;5.806;2022-08-04T10:55:51;21.38;;;3.97;;
62572;SDS011;48626;51.678;5.806;2022-08-04T10:58:32;16.85;;;3.83;;
62572;SDS011;48626;51.678;5.806;2022-08-04T11:03:57;14.32;;;3.85;;
62572;SDS011;48626;51.678;5.806;2022-08-04T11:06:28;15.68;;;4.20;;
62572;SDS011;48626;51.678;5.806;2022-08-04T11:08:56;16.10;;;4.15;;
62572;SDS011;48626;51.678;5.806;2022-08-04T11:14:00;14.57;;;4.18;;
62572;SDS011;48626;51.678;5.806;2022-08-04T11:19:34;15.02;;;4.53;;
62572;SDS011;48626;51.678;5.806;2022-08-04T11:22:22;15.85;;;6.60;;
62572;SDS011;48626;51.678;5.806;2022-08-04T11:30:24;15.23;;;5.65;;
62572;SDS011;48626;51.678;5.806;2022-08-04T11:33:19;22.80;;;6.75;;
62572;SDS011;48626;51.678;5.806;2022-08-04T11:41:17;22.77;;;5.38;;
62572;SDS011;48626;51.678;5.806;2022-08-04T11:43:53;39.83;;;6.00;;
62572;SDS011;48626;51.678;5.806;2022-08-04T11:46:28;27.85;;;4.90;;
62572;SDS011;48626;51.678;5.806;2022-08-04T11:48:57;26.95;;;5.93;;
62572;SDS011;48626;51.678;5.806;2022-08-04T11:51:29;14.05;;;3.67;;
62572;SDS011;48626;51.678;5.806;2022-08-04T11:53:56;14.20;;;3.65;;
62572;SDS011;48626;51.678;5.806;2022-08-04T11:56:23;17.08;;;3.97;;
62572;SDS011;48626;51.678;5.806;2022-08-04T11:58:49;12.63;;;3.72;;
62572;SDS011;48626;51.678;5.806;2022-08-04T12:01:21;16.75;;;3.85;;
62572;SDS011;48626;51.678;5.806;2022-08-04T12:04:14;11.27;;;3.25;;
62572;SDS011;48626;51.678;5.806;2022-08-04T12:07:04;11.07;;;3.85;;
62572;SDS011;48626;51.678;5.806;2022-08-04T12:19:00;8.63;;;4.07;;
62572;SDS011;48626;51.678;5.806;2022-08-04T12:21:32;14.82;;;7.38;;
62572;SDS011;48626;51.678;5.806;2022-08-04T12:24:19;10.73;;;3.10;;
62572;SDS011;48626;51.678;5.806;2022-08-04T12:27:06;13.45;;;3.28;;
62572;SDS011;48626;51.678;5.806;2022-08-04T12:29:38;8.38;;;3.20;;
62572;SDS011;48626;51.678;5.806;2022-08-04T12:32:10;13.05;;;3.10;;
62572;SDS011;48626;51.678;5.806;2022-08-04T12:34:53;6.50;;;3.38;;
62572;SDS011;48626;51.678;5.806;2022-08-04T12:39:59;10.88;;;3.65;;
62572;SDS011;48626;51.678;5.806;2022-08-04T12:45:11;12.93;;;4.05;;
62572;SDS011;48626;51.678;5.806;2022-08-04T12:47:39;9.85;;;4.13;;
62572;SDS011;48626;51.678;5.806;2022-08-04T12:50:06;13.13;;;3.90;;
62572;SDS011;48626;51.678;5.806;2022-08-04T12:52:45;13.98;;;4.80;;
62572;SDS011;48626;51.678;5.806;2022-08-04T12:57:40;13.57;;;4.57;;
62572;SDS011;48626;51.678;5.806;2022-08-04T13:00:08;13.10;;;4.53;;
62572;SDS011;48626;51.678;5.806;2022-08-04T13:02:40;9.35;;;3.60;;
62572;SDS011;48626;51.678;5.806;2022-08-04T13:05:08;10.35;;;3.67;;
62572;SDS011;48626;51.678;5.806;2022-08-04T13:07:39;9.55;;;3.75;;
62572;SDS011;48626;51.678;5.806;2022-08-04T13:10:12;10.65;;;3.85;;
62572;SDS011;48626;51.678;5.806;2022-08-04T13:12:40;10.48;;;3.80;;
62572;SDS011;48626;51.678;5.806;2022-08-04T13:15:16;10.10;;;3.97;;
62572;SDS011;48626;51.678;5.806;2022-08-04T13:17:52;12.60;;;4.00;;
62572;SDS011;48626;51.678;5.806;2022-08-04T13:20:26;14.50;;;4.45;;
62572;SDS011;48626;51.678;5.806;2022-08-04T13:23:02;15.23;;;4.63;;
62572;SDS011;48626;51.678;5.806;2022-08-04T13:25:28;11.43;;;4.60;;
62572;SDS011;48626;51.678;5.806;2022-08-04T13:27:55;12.32;;;5.35;;
62572;SDS011;48626;51.678;5.806;2022-08-04T13:30:23;13.35;;;4.80;;
62572;SDS011;48626;51.678;5.806;2022-08-04T13:32:56;10.82;;;5.18;;
62572;SDS011;48626;51.678;5.806;2022-08-04T13:35:25;10.68;;;4.72;;
62572;SDS011;48626;51.678;5.806;2022-08-04T13:37:51;14.43;;;6.00;;
62572;SDS011;48626;51.678;5.806;2022-08-04T13:40:24;35.47;;;6.05;;
62572;SDS011;48626;51.678;5.806;2022-08-04T13:42:51;39.40;;;6.18;;
62572;SDS011;48626;51.678;5.806;2022-08-04T13:45:21;16.00;;;5.18;;
62572;SDS011;48626;51.678;5.806;2022-08-04T13:47:48;17.42;;;4.95;;
62572;SDS011;48626;51.678;5.806;2022-08-04T13:52:56;7.30;;;4.35;;
62572;SDS011;48626;51.678;5.806;2022-08-04T13:55:26;7.70;;;3.22;;
62572;SDS011;48626;51.678;5.806;2022-08-04T13:57:58;9.35;;;3.42;;
62572;SDS011;48626;51.678;5.806;2022-08-04T14:00:27;14.63;;;3.72;;
62572;SDS011;48626;51.678;5.806;2022-08-04T14:03:28;9.20;;;3.30;;
62572;SDS011;48626;51.678;5.806;2022-08-04T14:08:35;8.15;;;3.15;;
62572;SDS011;48626;51.678;5.806;2022-08-04T14:11:20;7.20;;;3.28;;
62572;SDS011;48626;51.678;5.806;2022-08-04T14:14:13;10.50;;;4.15;;
62572;SDS011;48626;51.678;5.806;2022-08-04T14:19:24;14.10;;;5.75;;
62572;SDS011;48626;51.678;5.806;2022-08-04T14:21:50;12.88;;;5.25;;
62572;SDS011;48626;51.678;5.806;2022-08-04T14:24:23;10.80;;;5.68;;
62572;SDS011;48626;51.678;5.806;2022-08-04T14:26:52;8.48;;;4.35;;
62572;SDS011;48626;51.678;5.806;2022-08-04T14:29:23;11.68;;;4.30;;
62572;SDS011;48626;51.678;5.806;2022-08-04T14:31:49;9.50;;;4.72;;
62572;SDS011;48626;51.678;5.806;2022-08-04T14:34:24;10.95;;;4.28;;
62572;SDS011;48626;51.678;5.806;2022-08-04T14:36:51;8.68;;;3.60;;
62572;SDS011;48626;51.678;5.806;2022-08-04T14:39:17;18.33;;;5.95;;
62572;SDS011;48626;51.678;5.806;2022-08-04T14:42:03;8.57;;;3.83;;
62572;SDS011;48626;51.678;5.806;2022-08-04T14:44:30;8.65;;;3.53;;
62572;SDS011;48626;51.678;5.806;2022-08-04T14:46:56;19.50;;;4.07;;
62572;SDS011;48626;51.678;5.806;2022-08-04T14:49:23;14.55;;;3.53;;
62572;SDS011;48626;51.678;5.806;2022-08-04T14:54:24;9.57;;;3.37;;
62572;SDS011;48626;51.678;5.806;2022-08-04T14:56:53;8.27;;;3.65;;
62572;SDS011;48626;51.678;5.806;2022-08-04T14:59:22;9.52;;;3.60;;
62572;SDS011;48626;51.678;5.806;2022-08-04T15:01:48;8.65;;;4.10;;
62572;SDS011;48626;51.678;5.806;2022-08-04T15:04:16;9.15;;;3.72;;
62572;SDS011;48626;51.678;5.806;2022-08-04T15:06:43;9.45;;;4.00;;
62572;SDS011;48626;51.678;5.806;2022-08-04T15:09:11;8.45;;;3.35;;
62572;SDS011;48626;51.678;5.806;2022-08-04T15:11:37;8.38;;;3.35;;
62572;SDS011;48626;51.678;5.806;2022-08-04T15:14:03;9.60;;;4.13;;
62572;SDS011;48626;51.678;5.806;2022-08-04T15:16:29;7.97;;;3.47;;
62572;SDS011;48626;51.678;5.806;2022-08-04T15:18:56;7.97;;;3.30;;
62572;SDS011;48626;51.678;5.806;2022-08-04T15:21:23;9.32;;;3.40;;
62572;SDS011;48626;51.678;5.806;2022-08-04T15:23:50;6.88;;;3.53;;
62572;SDS011;48626;51.678;5.806;2022-08-04T15:26:18;9.45;;;4.20;;
62572;SDS011;48626;51.678;5.806;2022-08-04T15:28:50;11.07;;;3.95;;
62572;SDS011;48626;51.678;5.806;2022-08-04T15:31:20;10.68;;;3.28;;
62572;SDS011;48626;51.678;5.806;2022-08-04T15:33:47;12.82;;;3.80;;
62572;SDS011;48626;51.678;5.806;2022-08-04T15:36:15;7.80;;;3.25;;
62572;SDS011;48626;51.678;5.806;2022-08-04T15:38:57;7.38;;;2.90;;
62572;SDS011;48626;51.678;5.806;2022-08-04T15:44:26;7.10;;;2.90;;
62572;SDS011;48626;51.678;5.806;2022-08-04T15:47:11;8.23;;;3.00;;
62572;SDS011;48626;51.678;5.806;2022-08-04T15:49:38;4.57;;;2.53;;
62572;SDS011;48626;51.678;5.806;2022-08-04T15:52:14;6.18;;;2.53;;
62572;SDS011;48626;51.678;5.806;2022-08-04T15:54:41;5.70;;;3.08;;
62572;SDS011;48626;51.678;5.806;2022-08-04T15:57:08;8.93;;;2.90;;
62572;SDS011;48626;51.678;5.806;2022-08-04T16:10:36;7.95;;;4.15;;
62572;SDS011;48626;51.678;5.806;2022-08-04T16:13:07;9.35;;;3.75;;
62572;SDS011;48626;51.678;5.806;2022-08-04T16:21:04;9.85;;;3.10;;
62572;SDS011;48626;51.678;5.806;2022-08-04T16:23:53;9.73;;;4.80;;
62572;SDS011;48626;51.678;5.806;2022-08-04T16:29:01;11.68;;;3.80;;
62572;SDS011;48626;51.678;5.806;2022-08-04T16:31:28;6.82;;;3.17;;
62572;SDS011;48626;51.678;5.806;2022-08-04T16:33:58;7.22;;;3.08;;
62572;SDS011;48626;51.678;5.806;2022-08-04T16:39:25;4.55;;;2.67;;
62572;SDS011;48626;51.678;5.806;2022-08-04T16:41:51;7.28;;;3.20;;
62572;SDS011;48626;51.678;5.806;2022-08-04T16:44:30;5.13;;;2.70;;
62572;SDS011;48626;51.678;5.806;2022-08-04T16:47:02;11.13;;;3.53;;
62572;SDS011;48626;51.678;5.806;2022-08-04T16:49:29;6.13;;;2.88;;
62572;SDS011;48626;51.678;5.806;2022-08-04T16:52:00;11.90;;;2.92;;
62572;SDS011;48626;51.678;5.806;2022-08-04T16:54:28;9.95;;;2.65;;
62572;SDS011;48626;51.678;5.806;2022-08-04T16:56:56;7.32;;;2.90;;
62572;SDS011;48626;51.678;5.806;2022-08-04T16:59:22;8.43;;;2.92;;
62572;SDS011;48626;51.678;5.806;2022-08-04T17:01:50;8.65;;;2.60;;
62572;SDS011;48626;51.678;5.806;2022-08-04T17:04:20;4.97;;;2.60;;
62572;SDS011;48626;51.678;5.806;2022-08-04T17:06:59;7.95;;;2.63;;
62572;SDS011;48626;51.678;5.806;2022-08-04T17:09:27;9.20;;;4.40;;
62572;SDS011;48626;51.678;5.806;2022-08-04T17:11:54;10.10;;;3.92;;
62572;SDS011;48626;51.678;5.806;2022-08-04T17:14:24;7.88;;;3.53;;
62572;SDS011;48626;51.678;5.806;2022-08-04T17:16:52;9.70;;;3.75;;
62572;SDS011;48626;51.678;5.806;2022-08-04T17:19:21;7.63;;;3.20;;
62572;SDS011;48626;51.678;5.806;2022-08-04T17:21:47;10.05;;;5.25;;
62572;SDS011;48626;51.678;5.806;2022-08-04T17:24:14;10.15;;;4.82;;
62572;SDS011;48626;51.678;5.806;2022-08-04T17:26:40;7.28;;;3.50;;
62572;SDS011;48626;51.678;5.806;2022-08-04T17:29:06;10.27;;;3.80;;
62572;SDS011;48626;51.678;5.806;2022-08-04T17:31:32;11.70;;;4.47;;
62572;SDS011;48626;51.678;5.806;2022-08-04T17:34:02;11.18;;;3.47;;
62572;SDS011;48626;51.678;5.806;2022-08-04T17:36:37;7.70;;;3.08;;
62572;SDS011;48626;51.678;5.806;2022-08-04T17:39:10;4.50;;;2.20;;
62572;SDS011;48626;51.678;5.806;2022-08-04T17:41:39;7.70;;;3.17;;
62572;SDS011;48626;51.678;5.806;2022-08-04T17:44:05;5.70;;;2.40;;
62572;SDS011;48626;51.678;5.806;2022-08-04T17:46:43;8.75;;;3.25;;
62572;SDS011;48626;51.678;5.806;2022-08-04T17:51:47;5.90;;;2.88;;
62572;SDS011;48626;51.678;5.806;2022-08-04T17:54:17;8.40;;;2.88;;
62572;SDS011;48626;51.678;5.806;2022-08-04T17:56:54;8.10;;;2.88;;
62572;SDS011;48626;51.678;5.806;2022-08-04T17:59:25;9.02;;;3.00;;
62572;SDS011;48626;51.678;5.806;2022-08-04T18:01:57;10.55;;;3.00;;
62572;SDS011;48626;51.678;5.806;2022-08-04T18:04:24;10.07;;;2.90;;
62572;SDS011;48626;51.678;5.806;2022-08-04T18:07:06;7.72;;;3.25;;
62572;SDS011;48626;51.678;5.806;2022-08-04T18:12:09;8.77;;;2.92;;
62572;SDS011;48626;51.678;5.806;2022-08-04T18:14:38;11.93;;;2.90;;
62572;SDS011;48626;51.678;5.806;2022-08-04T18:17:05;11.23;;;3.70;;
62572;SDS011;48626;51.678;5.806;2022-08-04T18:19:31;13.23;;;3.00;;
62572;SDS011;48626;51.678;5.806;2022-08-04T18:21:57;9.13;;;2.70;;
62572;SDS011;48626;51.678;5.806;2022-08-04T18:24:24;9.07;;;3.83;;
62572;SDS011;48626;51.678;5.806;2022-08-04T18:26:50;18.20;;;12.52;;
62572;SDS011;48626;51.678;5.806;2022-08-04T18:29:16;8.70;;;3.15;;
62572;SDS011;48626;51.678;5.806;2022-08-04T18:31:42;7.13;;;2.63;;
62572;SDS011;48626;51.678;5.806;2022-08-04T18:34:08;7.88;;;2.65;;
62572;SDS011;48626;51.678;5.806;2022-08-04T18:36:34;6.45;;;2.90;;
62572;SDS011;48626;51.678;5.806;2022-08-04T18:39:01;7.63;;;2.65;;
62572;SDS011;48626;51.678;5.806;2022-08-04T18:41:28;5.18;;;2.53;;
62572;SDS011;48626;51.678;5.806;2022-08-04T18:43:54;6.32;;;2.65;;
62572;SDS011;48626;51.678;5.806;2022-08-04T18:46:21;9.07;;;3.10;;
62572;SDS011;48626;51.678;5.806;2022-08-04T18:48:47;10.52;;;2.70;;
62572;SDS011;48626;51.678;5.806;2022-08-04T18:51:13;7.20;;;2.78;;
62572;SDS011;48626;51.678;5.806;2022-08-04T18:53:39;6.18;;;2.78;;
62572;SDS011;48626;51.678;5.806;2022-08-04T18:56:04;9.38;;;2.88;;
62572;SDS011;48626;51.678;5.806;2022-08-04T18:58:30;6.50;;;2.60;;
62572;SDS011;48626;51.678;5.806;2022-08-04T19:00:56;19.95;;;7.75;;
62572;SDS011;48626;51.678;5.806;2022-08-04T19:03:22;5.78;;;2.85;;
62572;SDS011;48626;51.678;5.806;2022-08-04T19:05:47;9.15;;;3.35;;
62572;SDS011;48626;51.678;5.806;2022-08-04T19:08:13;5.30;;;2.58;;
62572;SDS011;48626;51.678;5.806;2022-08-04T19:10:39;13.75;;;3.33;;
62572;SDS011;48626;51.678;5.806;2022-08-04T19:13:04;10.05;;;2.90;;
62572;SDS011;48626;51.678;5.806;2022-08-04T19:15:30;11.40;;;2.95;;
62572;SDS011;48626;51.678;5.806;2022-08-04T19:17:56;7.85;;;3.13;;
62572;SDS011;48626;51.678;5.806;2022-08-04T19:20:22;8.57;;;3.00;;
62572;SDS011;48626;51.678;5.806;2022-08-04T19:22:49;6.07;;;2.88;;
62572;SDS011;48626;51.678;5.806;2022-08-04T19:25:15;12.50;;;3.92;;
62572;SDS011;48626;51.678;5.806;2022-08-04T19:27:40;11.40;;;3.78;;
62572;SDS011;48626;51.678;5.806;2022-08-04T19:30:06;10.05;;;3.83;;
62572;SDS011;48626;51.678;5.806;2022-08-04T19:32:33;6.38;;;2.67;;
62572;SDS011;48626;51.678;5.806;2022-08-04T19:34:58;11.55;;;3.05;;
62572;SDS011;48626;51.678;5.806;2022-08-04T19:37:24;8.75;;;3.22;;